sensor_id;sensor_type;location;lat;lon;timestamp;P1;durP1;ratioP1;P2;durP2;ratioP2
3865;SDS011;1948;53.250;10.412;2023-08-08T00:00:01;7.30;;;2.60;;
3865;SDS011;1948;53.250;10.412;2023-08-08T00:02:30;11.27;;;2.33;;
3865;SDS011;1948;53.250;10.412;2023-08-08T00:04:57;7.10;;;1.80;;
3865;SDS011;1948;53.250;10.412;2023-08-08T00:07:26;6.17;;;2.67;;
3865;SDS011;1948;53.250;10.412;2023-08-08T00:09:56;3.50;;;2.20;;
3865;SDS011;1948;53.250;10.412;2023-08-08T00:12:24;11.03;;;2.93;;
3865;SDS011;1948;53.250;10.412;2023-08-08T00:14:53;8.73;;;2.60;;
3865;SDS011;1948;53.250;10.412;2023-08-08T00:17:22;4.20;;;2.60;;
3865;SDS011;1948;53.250;10.412;2023-08-08T00:19:50;3.10;;;2.37;;
3865;SDS011;1948;53.250;10.412;2023-08-08T00:22:17;3.53;;;1.97;;
3865;SDS011;1948;53.250;10.412;2023-08-08T00:24:46;3.80;;;2.20;;
3865;SDS011;1948;53.250;10.412;2023-08-08T00:27:13;3.70;;;2.57;;
3865;SDS011;1948;53.250;10.412;2023-08-08T00:29:40;5.57;;;2.57;;
3865;SDS011;1948;53.250;10.412;2023-08-08T00:32:10;15.30;;;2.93;;
3865;SDS011;1948;53.250;10.412;2023-08-08T00:34:39;3.07;;;2.03;;
3865;SDS011;1948;53.250;10.412;2023-08-08T00:37:06;2.40;;;2.10;;
3865;SDS011;1948;53.250;10.412;2023-08-08T00:39:36;2.83;;;2.73;;
3865;SDS011;1948;53.250;10.412;2023-08-08T00:42:03;4.70;;;2.40;;
3865;SDS011;1948;53.250;10.412;2023-08-08T00:44:31;7.20;;;2.20;;
3865;SDS011;1948;53.250;10.412;2023-08-08T00:46:58;6.37;;;2.37;;
3865;SDS011;1948;53.250;10.412;2023-08-08T00:49:25;6.07;;;3.17;;
3865;SDS011;1948;53.250;10.412;2023-08-08T00:51:52;2.50;;;2.30;;
3865;SDS011;1948;53.250;10.412;2023-08-08T00:54:19;2.30;;;2.10;;
3865;SDS011;1948;53.250;10.412;2023-08-08T00:56:47;3.77;;;2.20;;
3865;SDS011;1948;53.250;10.412;2023-08-08T00:59:14;5.33;;;2.13;;
3865;SDS011;1948;53.250;10.412;2023-08-08T01:01:45;5.70;;;2.40;;
3865;SDS011;1948;53.250;10.412;2023-08-08T01:04:15;6.63;;;2.30;;
3865;SDS011;1948;53.250;10.412;2023-08-08T01:09:24;11.10;;;2.50;;
3865;SDS011;1948;53.250;10.412;2023-08-08T01:12:48;2.63;;;2.00;;
3865;SDS011;1948;53.250;10.412;2023-08-08T01:15:20;2.17;;;2.07;;
3865;SDS011;1948;53.250;10.412;2023-08-08T01:17:48;4.30;;;2.57;;
3865;SDS011;1948;53.250;10.412;2023-08-08T01:20:17;4.43;;;2.27;;
3865;SDS011;1948;53.250;10.412;2023-08-08T01:25:17;3.87;;;2.70;;
3865;SDS011;1948;53.250;10.412;2023-08-08T01:27:46;5.13;;;2.80;;
3865;SDS011;1948;53.250;10.412;2023-08-08T01:30:16;3.17;;;2.40;;
3865;SDS011;1948;53.250;10.412;2023-08-08T01:32:43;2.23;;;2.13;;
3865;SDS011;1948;53.250;10.412;2023-08-08T01:35:10;6.73;;;2.13;;
3865;SDS011;1948;53.250;10.412;2023-08-08T01:37:39;9.50;;;3.17;;
3865;SDS011;1948;53.250;10.412;2023-08-08T01:40:13;4.43;;;2.40;;
3865;SDS011;1948;53.250;10.412;2023-08-08T01:42:47;3.47;;;2.50;;
3865;SDS011;1948;53.250;10.412;2023-08-08T01:45:17;2.30;;;2.20;;
3865;SDS011;1948;53.250;10.412;2023-08-08T01:47:51;2.03;;;2.03;;
3865;SDS011;1948;53.250;10.412;2023-08-08T01:50:20;3.27;;;2.40;;
3865;SDS011;1948;53.250;10.412;2023-08-08T01:52:47;13.90;;;3.27;;
3865;SDS011;1948;53.250;10.412;2023-08-08T01:55:19;5.83;;;2.30;;
3865;SDS011;1948;53.250;10.412;2023-08-08T01:57:49;8.70;;;2.73;;
3865;SDS011;1948;53.250;10.412;2023-08-08T02:00:21;5.20;;;2.30;;
3865;SDS011;1948;53.250;10.412;2023-08-08T02:02:48;8.63;;;1.87;;
3865;SDS011;1948;53.250;10.412;2023-08-08T02:05:16;7.33;;;2.53;;
3865;SDS011;1948;53.250;10.412;2023-08-08T02:07:43;8.60;;;2.30;;
3865;SDS011;1948;53.250;10.412;2023-08-08T02:10:10;4.60;;;2.23;;
3865;SDS011;1948;53.250;10.412;2023-08-08T02:12:37;3.47;;;2.00;;
3865;SDS011;1948;53.250;10.412;2023-08-08T02:15:04;3.13;;;2.20;;
3865;SDS011;1948;53.250;10.412;2023-08-08T02:17:32;6.90;;;2.43;;
3865;SDS011;1948;53.250;10.412;2023-08-08T02:19:59;5.17;;;2.20;;
3865;SDS011;1948;53.250;10.412;2023-08-08T02:22:29;25.33;;;2.10;;
3865;SDS011;1948;53.250;10.412;2023-08-08T02:24:56;4.70;;;1.93;;
3865;SDS011;1948;53.250;10.412;2023-08-08T02:27:23;2.83;;;1.80;;
3865;SDS011;1948;53.250;10.412;2023-08-08T02:29:55;4.97;;;1.90;;
3865;SDS011;1948;53.250;10.412;2023-08-08T02:32:25;3.80;;;2.30;;
3865;SDS011;1948;53.250;10.412;2023-08-08T02:34:52;6.63;;;2.50;;
3865;SDS011;1948;53.250;10.412;2023-08-08T02:37:19;34.33;;;2.90;;
3865;SDS011;1948;53.250;10.412;2023-08-08T02:39:46;9.20;;;2.20;;
3865;SDS011;1948;53.250;10.412;2023-08-08T02:42:15;5.07;;;2.10;;
3865;SDS011;1948;53.250;10.412;2023-08-08T02:44:45;5.50;;;2.47;;
3865;SDS011;1948;53.250;10.412;2023-08-08T02:47:12;2.50;;;2.30;;
3865;SDS011;1948;53.250;10.412;2023-08-08T02:49:39;3.30;;;2.00;;
3865;SDS011;1948;53.250;10.412;2023-08-08T02:52:08;5.70;;;2.13;;
3865;SDS011;1948;53.250;10.412;2023-08-08T02:54:40;8.83;;;2.40;;
3865;SDS011;1948;53.250;10.412;2023-08-08T02:57:10;5.00;;;3.00;;
3865;SDS011;1948;53.250;10.412;2023-08-08T02:59:38;5.63;;;2.60;;
3865;SDS011;1948;53.250;10.412;2023-08-08T03:02:05;4.33;;;2.80;;
3865;SDS011;1948;53.250;10.412;2023-08-08T03:04:34;9.37;;;2.80;;
3865;SDS011;1948;53.250;10.412;2023-08-08T03:07:01;5.70;;;2.70;;
3865;SDS011;1948;53.250;10.412;2023-08-08T03:09:31;8.40;;;3.10;;
3865;SDS011;1948;53.250;10.412;2023-08-08T03:12:05;3.00;;;2.27;;
3865;SDS011;1948;53.250;10.412;2023-08-08T03:14:35;4.73;;;2.70;;
3865;SDS011;1948;53.250;10.412;2023-08-08T03:17:03;8.07;;;2.80;;
3865;SDS011;1948;53.250;10.412;2023-08-08T03:19:30;2.97;;;2.70;;
3865;SDS011;1948;53.250;10.412;2023-08-08T03:22:00;6.03;;;2.60;;
3865;SDS011;1948;53.250;10.412;2023-08-08T03:24:27;5.90;;;3.10;;
3865;SDS011;1948;53.250;10.412;2023-08-08T03:26:54;11.53;;;3.03;;
3865;SDS011;1948;53.250;10.412;2023-08-08T03:29:22;14.60;;;2.93;;
3865;SDS011;1948;53.250;10.412;2023-08-08T03:31:49;3.93;;;3.13;;
3865;SDS011;1948;53.250;10.412;2023-08-08T03:34:16;15.63;;;2.73;;
3865;SDS011;1948;53.250;10.412;2023-08-08T03:36:43;3.30;;;3.00;;
3865;SDS011;1948;53.250;10.412;2023-08-08T03:39:10;2.50;;;2.40;;
3865;SDS011;1948;53.250;10.412;2023-08-08T03:41:37;3.30;;;2.90;;
3865;SDS011;1948;53.250;10.412;2023-08-08T03:44:04;8.63;;;2.73;;
3865;SDS011;1948;53.250;10.412;2023-08-08T03:46:32;2.70;;;2.50;;
3865;SDS011;1948;53.250;10.412;2023-08-08T03:49:00;4.27;;;2.67;;
3865;SDS011;1948;53.250;10.412;2023-08-08T03:51:27;6.83;;;2.70;;
3865;SDS011;1948;53.250;10.412;2023-08-08T03:53:59;7.10;;;2.90;;
3865;SDS011;1948;53.250;10.412;2023-08-08T03:56:26;5.33;;;2.37;;
3865;SDS011;1948;53.250;10.412;2023-08-08T03:58:55;5.20;;;2.90;;
3865;SDS011;1948;53.250;10.412;2023-08-08T04:01:24;6.27;;;2.60;;
3865;SDS011;1948;53.250;10.412;2023-08-08T04:03:51;6.60;;;2.63;;
3865;SDS011;1948;53.250;10.412;2023-08-08T04:06:23;4.67;;;2.93;;
3865;SDS011;1948;53.250;10.412;2023-08-08T04:08:50;10.30;;;3.10;;
3865;SDS011;1948;53.250;10.412;2023-08-08T04:11:20;7.70;;;2.67;;
3865;SDS011;1948;53.250;10.412;2023-08-08T04:13:47;7.73;;;2.63;;
3865;SDS011;1948;53.250;10.412;2023-08-08T04:16:14;4.20;;;2.40;;
3865;SDS011;1948;53.250;10.412;2023-08-08T04:18:41;3.60;;;2.60;;
3865;SDS011;1948;53.250;10.412;2023-08-08T04:21:11;5.10;;;2.77;;
3865;SDS011;1948;53.250;10.412;2023-08-08T04:23:40;9.27;;;2.40;;
3865;SDS011;1948;53.250;10.412;2023-08-08T04:26:09;4.97;;;2.67;;
3865;SDS011;1948;53.250;10.412;2023-08-08T04:28:36;3.67;;;3.23;;
3865;SDS011;1948;53.250;10.412;2023-08-08T04:31:06;4.67;;;2.40;;
3865;SDS011;1948;53.250;10.412;2023-08-08T04:33:33;2.73;;;2.53;;
3865;SDS011;1948;53.250;10.412;2023-08-08T04:36:00;6.30;;;2.70;;
3865;SDS011;1948;53.250;10.412;2023-08-08T04:38:27;3.90;;;2.77;;
3865;SDS011;1948;53.250;10.412;2023-08-08T04:40:54;4.37;;;2.43;;
3865;SDS011;1948;53.250;10.412;2023-08-08T04:43:21;4.97;;;2.57;;
3865;SDS011;1948;53.250;10.412;2023-08-08T04:45:48;12.77;;;3.00;;
3865;SDS011;1948;53.250;10.412;2023-08-08T04:48:15;3.13;;;2.77;;
3865;SDS011;1948;53.250;10.412;2023-08-08T04:50:42;3.43;;;2.70;;
3865;SDS011;1948;53.250;10.412;2023-08-08T04:53:09;3.30;;;2.63;;
3865;SDS011;1948;53.250;10.412;2023-08-08T04:55:36;7.30;;;3.50;;
3865;SDS011;1948;53.250;10.412;2023-08-08T04:58:03;3.10;;;2.97;;
3865;SDS011;1948;53.250;10.412;2023-08-08T05:00:30;10.07;;;2.60;;
3865;SDS011;1948;53.250;10.412;2023-08-08T05:03:00;5.33;;;2.90;;
3865;SDS011;1948;53.250;10.412;2023-08-08T05:05:28;2.67;;;2.57;;
3865;SDS011;1948;53.250;10.412;2023-08-08T05:07:57;10.53;;;2.73;;
3865;SDS011;1948;53.250;10.412;2023-08-08T05:10:26;9.83;;;3.33;;
3865;SDS011;1948;53.250;10.412;2023-08-08T05:12:56;8.13;;;3.47;;
3865;SDS011;1948;53.250;10.412;2023-08-08T05:15:26;2.93;;;2.67;;
3865;SDS011;1948;53.250;10.412;2023-08-08T05:17:55;2.90;;;2.67;;
3865;SDS011;1948;53.250;10.412;2023-08-08T05:20:22;7.23;;;2.73;;
3865;SDS011;1948;53.250;10.412;2023-08-08T05:22:52;3.77;;;2.30;;
3865;SDS011;1948;53.250;10.412;2023-08-08T05:25:19;8.73;;;2.93;;
3865;SDS011;1948;53.250;10.412;2023-08-08T05:27:46;6.00;;;2.23;;
3865;SDS011;1948;53.250;10.412;2023-08-08T05:30:14;5.20;;;2.07;;
3865;SDS011;1948;53.250;10.412;2023-08-08T05:32:41;5.77;;;2.27;;
3865;SDS011;1948;53.250;10.412;2023-08-08T05:35:08;2.20;;;2.10;;
3865;SDS011;1948;53.250;10.412;2023-08-08T05:37:38;1.97;;;1.87;;
3865;SDS011;1948;53.250;10.412;2023-08-08T05:40:05;1.80;;;1.80;;
3865;SDS011;1948;53.250;10.412;2023-08-08T05:42:33;2.40;;;2.30;;
3865;SDS011;1948;53.250;10.412;2023-08-08T05:45:01;3.70;;;2.20;;
3865;SDS011;1948;53.250;10.412;2023-08-08T05:47:28;2.37;;;2.27;;
3865;SDS011;1948;53.250;10.412;2023-08-08T05:49:55;2.13;;;1.90;;
3865;SDS011;1948;53.250;10.412;2023-08-08T05:52:22;5.17;;;1.93;;
3865;SDS011;1948;53.250;10.412;2023-08-08T05:54:52;2.97;;;1.60;;
3865;SDS011;1948;53.250;10.412;2023-08-08T05:57:19;2.03;;;1.83;;
3865;SDS011;1948;53.250;10.412;2023-08-08T05:59:48;2.30;;;2.10;;
3865;SDS011;1948;53.250;10.412;2023-08-08T06:02:15;2.60;;;2.40;;
3865;SDS011;1948;53.250;10.412;2023-08-08T06:04:42;2.60;;;2.50;;
3865;SDS011;1948;53.250;10.412;2023-08-08T06:07:12;2.77;;;2.60;;
3865;SDS011;1948;53.250;10.412;2023-08-08T06:09:38;2.50;;;2.43;;
3865;SDS011;1948;53.250;10.412;2023-08-08T06:12:06;2.60;;;2.50;;
3865;SDS011;1948;53.250;10.412;2023-08-08T06:14:33;4.63;;;2.90;;
3865;SDS011;1948;53.250;10.412;2023-08-08T06:17:00;3.23;;;2.93;;
3865;SDS011;1948;53.250;10.412;2023-08-08T06:19:30;3.03;;;2.90;;
3865;SDS011;1948;53.250;10.412;2023-08-08T06:22:00;6.50;;;3.50;;
3865;SDS011;1948;53.250;10.412;2023-08-08T06:24:30;10.50;;;3.33;;
3865;SDS011;1948;53.250;10.412;2023-08-08T06:26:58;3.17;;;3.00;;
3865;SDS011;1948;53.250;10.412;2023-08-08T06:29:25;6.10;;;3.50;;
3865;SDS011;1948;53.250;10.412;2023-08-08T06:31:53;10.53;;;3.47;;
3865;SDS011;1948;53.250;10.412;2023-08-08T06:34:20;3.07;;;2.77;;
3865;SDS011;1948;53.250;10.412;2023-08-08T06:36:47;3.40;;;2.87;;
3865;SDS011;1948;53.250;10.412;2023-08-08T06:39:17;7.83;;;3.30;;
3865;SDS011;1948;53.250;10.412;2023-08-08T06:41:47;4.93;;;3.07;;
3865;SDS011;1948;53.250;10.412;2023-08-08T06:44:15;5.10;;;2.30;;
3865;SDS011;1948;53.250;10.412;2023-08-08T06:46:45;3.70;;;2.83;;
3865;SDS011;1948;53.250;10.412;2023-08-08T06:49:12;3.40;;;3.10;;
3865;SDS011;1948;53.250;10.412;2023-08-08T06:51:39;3.93;;;2.40;;
3865;SDS011;1948;53.250;10.412;2023-08-08T06:54:06;2.07;;;2.00;;
3865;SDS011;1948;53.250;10.412;2023-08-08T06:56:34;4.97;;;2.57;;
3865;SDS011;1948;53.250;10.412;2023-08-08T06:59:03;3.40;;;2.20;;
3865;SDS011;1948;53.250;10.412;2023-08-08T07:01:30;2.30;;;2.20;;
3865;SDS011;1948;53.250;10.412;2023-08-08T07:04:00;9.50;;;2.47;;
3865;SDS011;1948;53.250;10.412;2023-08-08T07:06:27;7.10;;;2.50;;
3865;SDS011;1948;53.250;10.412;2023-08-08T07:08:54;6.67;;;2.43;;
3865;SDS011;1948;53.250;10.412;2023-08-08T07:11:23;5.60;;;2.03;;
3865;SDS011;1948;53.250;10.412;2023-08-08T07:13:51;4.97;;;2.00;;
3865;SDS011;1948;53.250;10.412;2023-08-08T07:16:18;4.07;;;2.37;;
3865;SDS011;1948;53.250;10.412;2023-08-08T07:18:45;2.73;;;2.50;;
3865;SDS011;1948;53.250;10.412;2023-08-08T07:21:14;5.20;;;2.33;;
3865;SDS011;1948;53.250;10.412;2023-08-08T07:23:44;8.90;;;2.33;;
3865;SDS011;1948;53.250;10.412;2023-08-08T07:26:11;9.40;;;2.67;;
3865;SDS011;1948;53.250;10.412;2023-08-08T07:28:38;2.50;;;2.30;;
3865;SDS011;1948;53.250;10.412;2023-08-08T07:31:08;4.97;;;3.03;;
3865;SDS011;1948;53.250;10.412;2023-08-08T07:33:35;3.17;;;2.43;;
3865;SDS011;1948;53.250;10.412;2023-08-08T07:36:07;4.23;;;2.53;;
3865;SDS011;1948;53.250;10.412;2023-08-08T07:38:38;8.50;;;3.27;;
3865;SDS011;1948;53.250;10.412;2023-08-08T07:41:06;3.50;;;2.83;;
3865;SDS011;1948;53.250;10.412;2023-08-08T07:43:36;3.37;;;2.43;;
3865;SDS011;1948;53.250;10.412;2023-08-08T07:46:03;3.87;;;1.97;;
3865;SDS011;1948;53.250;10.412;2023-08-08T07:48:32;4.20;;;2.40;;
3865;SDS011;1948;53.250;10.412;2023-08-08T07:51:02;8.90;;;2.03;;
3865;SDS011;1948;53.250;10.412;2023-08-08T07:53:31;6.80;;;2.00;;
3865;SDS011;1948;53.250;10.412;2023-08-08T07:56:00;6.67;;;1.83;;
3865;SDS011;1948;53.250;10.412;2023-08-08T07:58:28;3.87;;;2.70;;
3865;SDS011;1948;53.250;10.412;2023-08-08T08:00:57;3.70;;;1.93;;
3865;SDS011;1948;53.250;10.412;2023-08-08T08:03:27;9.83;;;2.10;;
3865;SDS011;1948;53.250;10.412;2023-08-08T08:05:54;9.70;;;2.53;;
3865;SDS011;1948;53.250;10.412;2023-08-08T08:08:22;4.20;;;1.60;;
3865;SDS011;1948;53.250;10.412;2023-08-08T08:10:50;5.40;;;1.83;;
3865;SDS011;1948;53.250;10.412;2023-08-08T08:13:19;2.40;;;1.87;;
3865;SDS011;1948;53.250;10.412;2023-08-08T08:15:46;9.13;;;2.43;;
3865;SDS011;1948;53.250;10.412;2023-08-08T08:18:14;5.83;;;2.00;;
3865;SDS011;1948;53.250;10.412;2023-08-08T08:20:44;7.13;;;2.30;;
3865;SDS011;1948;53.250;10.412;2023-08-08T08:23:12;13.13;;;1.93;;
3865;SDS011;1948;53.250;10.412;2023-08-08T08:25:39;6.00;;;2.93;;
3865;SDS011;1948;53.250;10.412;2023-08-08T08:28:12;5.50;;;1.70;;
3865;SDS011;1948;53.250;10.412;2023-08-08T08:30:39;6.33;;;2.63;;
3865;SDS011;1948;53.250;10.412;2023-08-08T08:33:06;2.87;;;1.90;;
3865;SDS011;1948;53.250;10.412;2023-08-08T08:35:34;4.17;;;1.80;;
3865;SDS011;1948;53.250;10.412;2023-08-08T08:38:02;8.27;;;2.03;;
3865;SDS011;1948;53.250;10.412;2023-08-08T08:40:34;6.10;;;1.80;;
3865;SDS011;1948;53.250;10.412;2023-08-08T08:43:06;4.93;;;2.00;;
3865;SDS011;1948;53.250;10.412;2023-08-08T08:45:37;10.10;;;2.03;;
3865;SDS011;1948;53.250;10.412;2023-08-08T08:48:07;8.93;;;1.90;;
3865;SDS011;1948;53.250;10.412;2023-08-08T08:50:38;5.00;;;2.07;;
3865;SDS011;1948;53.250;10.412;2023-08-08T08:53:09;7.03;;;1.67;;
3865;SDS011;1948;53.250;10.412;2023-08-08T08:55:40;5.33;;;2.13;;
3865;SDS011;1948;53.250;10.412;2023-08-08T08:58:10;1.67;;;1.57;;
3865;SDS011;1948;53.250;10.412;2023-08-08T09:00:44;21.40;;;2.60;;
3865;SDS011;1948;53.250;10.412;2023-08-08T09:03:14;3.37;;;1.70;;
3865;SDS011;1948;53.250;10.412;2023-08-08T09:05:46;1.87;;;1.77;;
3865;SDS011;1948;53.250;10.412;2023-08-08T09:08:14;5.17;;;2.27;;
3865;SDS011;1948;53.250;10.412;2023-08-08T09:10:41;3.70;;;1.77;;
3865;SDS011;1948;53.250;10.412;2023-08-08T09:13:11;2.33;;;1.40;;
3865;SDS011;1948;53.250;10.412;2023-08-08T09:15:40;2.10;;;1.53;;
3865;SDS011;1948;53.250;10.412;2023-08-08T09:18:09;2.00;;;1.50;;
3865;SDS011;1948;53.250;10.412;2023-08-08T09:20:36;2.60;;;1.30;;
3865;SDS011;1948;53.250;10.412;2023-08-08T09:23:03;1.17;;;1.07;;
3865;SDS011;1948;53.250;10.412;2023-08-08T09:25:33;1.90;;;1.07;;
3865;SDS011;1948;53.250;10.412;2023-08-08T09:28:00;1.00;;;0.90;;
3865;SDS011;1948;53.250;10.412;2023-08-08T09:30:33;3.33;;;1.50;;
3865;SDS011;1948;53.250;10.412;2023-08-08T09:33:03;3.57;;;1.97;;
3865;SDS011;1948;53.250;10.412;2023-08-08T09:35:31;1.43;;;1.43;;
3865;SDS011;1948;53.250;10.412;2023-08-08T09:38:00;1.40;;;1.30;;
3865;SDS011;1948;53.250;10.412;2023-08-08T09:40:30;2.80;;;1.27;;
3865;SDS011;1948;53.250;10.412;2023-08-08T09:42:57;1.20;;;1.20;;
3865;SDS011;1948;53.250;10.412;2023-08-08T09:45:24;1.37;;;1.27;;
3865;SDS011;1948;53.250;10.412;2023-08-08T09:47:54;3.63;;;1.37;;
3865;SDS011;1948;53.250;10.412;2023-08-08T09:50:25;2.93;;;1.60;;
3865;SDS011;1948;53.250;10.412;2023-08-08T09:52:55;4.80;;;1.67;;
3865;SDS011;1948;53.250;10.412;2023-08-08T09:55:22;1.53;;;1.43;;
3865;SDS011;1948;53.250;10.412;2023-08-08T09:57:50;4.60;;;1.53;;
3865;SDS011;1948;53.250;10.412;2023-08-08T10:00:21;1.60;;;1.37;;
3865;SDS011;1948;53.250;10.412;2023-08-08T10:02:51;5.13;;;1.53;;
3865;SDS011;1948;53.250;10.412;2023-08-08T10:05:18;1.30;;;1.30;;
3865;SDS011;1948;53.250;10.412;2023-08-08T10:07:45;1.20;;;1.20;;
3865;SDS011;1948;53.250;10.412;2023-08-08T10:10:13;4.30;;;1.80;;
3865;SDS011;1948;53.250;10.412;2023-08-08T10:12:41;8.87;;;1.40;;
3865;SDS011;1948;53.250;10.412;2023-08-08T10:15:11;7.90;;;1.90;;
3865;SDS011;1948;53.250;10.412;2023-08-08T10:17:41;18.37;;;2.47;;
3865;SDS011;1948;53.250;10.412;2023-08-08T10:20:13;1.80;;;1.30;;
3865;SDS011;1948;53.250;10.412;2023-08-08T10:22:44;2.40;;;2.00;;
3865;SDS011;1948;53.250;10.412;2023-08-08T10:25:23;3.90;;;1.70;;
3865;SDS011;1948;53.250;10.412;2023-08-08T10:30:53;3.90;;;1.40;;
3865;SDS011;1948;53.250;10.412;2023-08-08T10:33:26;8.40;;;2.10;;
3865;SDS011;1948;53.250;10.412;2023-08-08T10:38:45;9.40;;;2.00;;
3865;SDS011;1948;53.250;10.412;2023-08-08T10:41:21;2.43;;;1.67;;
3865;SDS011;1948;53.250;10.412;2023-08-08T10:43:56;3.03;;;1.40;;
3865;SDS011;1948;53.250;10.412;2023-08-08T10:46:24;2.97;;;1.40;;
3865;SDS011;1948;53.250;10.412;2023-08-08T10:48:58;2.50;;;1.40;;
3865;SDS011;1948;53.250;10.412;2023-08-08T10:54:22;3.47;;;2.37;;
3865;SDS011;1948;53.250;10.412;2023-08-08T10:56:55;7.40;;;1.70;;
3865;SDS011;1948;53.250;10.412;2023-08-08T10:59:35;4.33;;;1.73;;
3865;SDS011;1948;53.250;10.412;2023-08-08T11:02:04;4.30;;;1.67;;
3865;SDS011;1948;53.250;10.412;2023-08-08T11:04:36;5.23;;;4.23;;
3865;SDS011;1948;53.250;10.412;2023-08-08T11:07:03;5.80;;;1.70;;
3865;SDS011;1948;53.250;10.412;2023-08-08T11:09:38;1.53;;;1.43;;
3865;SDS011;1948;53.250;10.412;2023-08-08T11:12:05;4.47;;;1.60;;
3865;SDS011;1948;53.250;10.412;2023-08-08T11:14:41;6.43;;;1.20;;
3865;SDS011;1948;53.250;10.412;2023-08-08T11:17:13;4.40;;;1.70;;
3865;SDS011;1948;53.250;10.412;2023-08-08T11:19:40;6.53;;;1.60;;
3865;SDS011;1948;53.250;10.412;2023-08-08T11:22:11;1.73;;;1.30;;
3865;SDS011;1948;53.250;10.412;2023-08-08T11:24:38;3.27;;;1.50;;
3865;SDS011;1948;53.250;10.412;2023-08-08T11:27:05;1.53;;;1.40;;
3865;SDS011;1948;53.250;10.412;2023-08-08T11:29:37;1.93;;;1.13;;
3865;SDS011;1948;53.250;10.412;2023-08-08T11:32:06;4.10;;;1.40;;
3865;SDS011;1948;53.250;10.412;2023-08-08T11:34:35;14.30;;;2.20;;
3865;SDS011;1948;53.250;10.412;2023-08-08T11:37:06;14.87;;;1.17;;
3865;SDS011;1948;53.250;10.412;2023-08-08T11:39:35;4.27;;;2.20;;
3865;SDS011;1948;53.250;10.412;2023-08-08T11:42:03;1.80;;;1.20;;
3865;SDS011;1948;53.250;10.412;2023-08-08T11:44:35;3.37;;;1.20;;
3865;SDS011;1948;53.250;10.412;2023-08-08T11:47:05;2.00;;;1.23;;
3865;SDS011;1948;53.250;10.412;2023-08-08T11:49:39;1.43;;;1.17;;
3865;SDS011;1948;53.250;10.412;2023-08-08T11:52:11;1.13;;;1.13;;
3865;SDS011;1948;53.250;10.412;2023-08-08T11:54:38;1.13;;;1.13;;
3865;SDS011;1948;53.250;10.412;2023-08-08T11:57:09;3.80;;;1.70;;
3865;SDS011;1948;53.250;10.412;2023-08-08T11:59:39;2.77;;;1.40;;
3865;SDS011;1948;53.250;10.412;2023-08-08T12:02:09;1.00;;;1.00;;
3865;SDS011;1948;53.250;10.412;2023-08-08T12:04:37;3.90;;;1.40;;
3865;SDS011;1948;53.250;10.412;2023-08-08T12:07:04;3.20;;;1.30;;
3865;SDS011;1948;53.250;10.412;2023-08-08T12:09:36;3.40;;;1.20;;
3865;SDS011;1948;53.250;10.412;2023-08-08T12:12:08;8.20;;;1.20;;
3865;SDS011;1948;53.250;10.412;2023-08-08T12:14:37;2.60;;;1.10;;
3865;SDS011;1948;53.250;10.412;2023-08-08T12:17:22;2.57;;;1.30;;
3865;SDS011;1948;53.250;10.412;2023-08-08T12:19:49;1.13;;;1.13;;
3865;SDS011;1948;53.250;10.412;2023-08-08T12:22:18;2.03;;;1.33;;
3865;SDS011;1948;53.250;10.412;2023-08-08T12:24:48;1.13;;;1.03;;
3865;SDS011;1948;53.250;10.412;2023-08-08T12:27:15;1.30;;;1.20;;
3865;SDS011;1948;53.250;10.412;2023-08-08T12:29:42;3.40;;;1.53;;
3865;SDS011;1948;53.250;10.412;2023-08-08T12:32:12;1.77;;;1.20;;
3865;SDS011;1948;53.250;10.412;2023-08-08T12:34:39;7.10;;;1.53;;
3865;SDS011;1948;53.250;10.412;2023-08-08T12:37:09;1.53;;;1.43;;
3865;SDS011;1948;53.250;10.412;2023-08-08T12:39:36;2.83;;;1.30;;
3865;SDS011;1948;53.250;10.412;2023-08-08T12:42:03;3.33;;;1.60;;
3865;SDS011;1948;53.250;10.412;2023-08-08T12:44:33;1.67;;;1.20;;
3865;SDS011;1948;53.250;10.412;2023-08-08T12:47:02;2.30;;;1.40;;
3865;SDS011;1948;53.250;10.412;2023-08-08T12:49:32;1.37;;;1.27;;
3865;SDS011;1948;53.250;10.412;2023-08-08T12:51:59;3.23;;;1.23;;
3865;SDS011;1948;53.250;10.412;2023-08-08T12:54:26;2.23;;;1.20;;
3865;SDS011;1948;53.250;10.412;2023-08-08T12:56:53;2.30;;;1.17;;
3865;SDS011;1948;53.250;10.412;2023-08-08T12:59:20;1.37;;;1.13;;
3865;SDS011;1948;53.250;10.412;2023-08-08T13:01:47;3.50;;;1.27;;
3865;SDS011;1948;53.250;10.412;2023-08-08T13:04:14;2.10;;;1.10;;
3865;SDS011;1948;53.250;10.412;2023-08-08T13:06:45;1.23;;;1.00;;
3865;SDS011;1948;53.250;10.412;2023-08-08T13:09:15;1.10;;;1.00;;
3865;SDS011;1948;53.250;10.412;2023-08-08T13:11:46;1.50;;;1.33;;
3865;SDS011;1948;53.250;10.412;2023-08-08T13:14:15;2.93;;;1.23;;
3865;SDS011;1948;53.250;10.412;2023-08-08T13:16:42;1.80;;;1.40;;
3865;SDS011;1948;53.250;10.412;2023-08-08T13:19:12;1.53;;;0.80;;
3865;SDS011;1948;53.250;10.412;2023-08-08T13:21:41;6.23;;;1.00;;
3865;SDS011;1948;53.250;10.412;2023-08-08T13:24:11;3.13;;;1.40;;
3865;SDS011;1948;53.250;10.412;2023-08-08T13:26:40;7.53;;;1.10;;
3865;SDS011;1948;53.250;10.412;2023-08-08T13:29:11;1.17;;;1.00;;
3865;SDS011;1948;53.250;10.412;2023-08-08T13:31:38;1.43;;;1.00;;
3865;SDS011;1948;53.250;10.412;2023-08-08T13:34:07;1.20;;;1.10;;
3865;SDS011;1948;53.250;10.412;2023-08-08T13:36:34;18.57;;;1.50;;
3865;SDS011;1948;53.250;10.412;2023-08-08T13:39:03;2.17;;;1.30;;
3865;SDS011;1948;53.250;10.412;2023-08-08T13:41:30;1.10;;;0.80;;
3865;SDS011;1948;53.250;10.412;2023-08-08T13:43:58;2.57;;;1.60;;
3865;SDS011;1948;53.250;10.412;2023-08-08T13:46:30;1.00;;;1.00;;
3865;SDS011;1948;53.250;10.412;2023-08-08T13:48:57;5.50;;;1.00;;
3865;SDS011;1948;53.250;10.412;2023-08-08T13:51:27;1.90;;;1.20;;
3865;SDS011;1948;53.250;10.412;2023-08-08T13:53:54;1.90;;;0.90;;
3865;SDS011;1948;53.250;10.412;2023-08-08T13:56:22;15.63;;;1.37;;
3865;SDS011;1948;53.250;10.412;2023-08-08T13:58:49;2.10;;;1.20;;
3865;SDS011;1948;53.250;10.412;2023-08-08T14:01:18;1.27;;;1.17;;
3865;SDS011;1948;53.250;10.412;2023-08-08T14:03:45;2.50;;;1.17;;
3865;SDS011;1948;53.250;10.412;2023-08-08T14:06:16;4.20;;;1.10;;
3865;SDS011;1948;53.250;10.412;2023-08-08T14:08:46;4.63;;;1.20;;
3865;SDS011;1948;53.250;10.412;2023-08-08T14:11:14;1.53;;;0.97;;
3865;SDS011;1948;53.250;10.412;2023-08-08T14:13:43;2.70;;;1.37;;
3865;SDS011;1948;53.250;10.412;2023-08-08T14:16:11;2.33;;;1.50;;
3865;SDS011;1948;53.250;10.412;2023-08-08T14:18:40;3.53;;;1.70;;
3865;SDS011;1948;53.250;10.412;2023-08-08T14:21:10;10.90;;;1.40;;
3865;SDS011;1948;53.250;10.412;2023-08-08T14:23:37;9.40;;;1.70;;
3865;SDS011;1948;53.250;10.412;2023-08-08T14:26:06;2.00;;;1.30;;
3865;SDS011;1948;53.250;10.412;2023-08-08T14:28:33;3.43;;;1.47;;
3865;SDS011;1948;53.250;10.412;2023-08-08T14:31:00;3.27;;;1.40;;
3865;SDS011;1948;53.250;10.412;2023-08-08T14:33:33;6.10;;;2.00;;
3865;SDS011;1948;53.250;10.412;2023-08-08T14:36:02;2.40;;;1.47;;
3865;SDS011;1948;53.250;10.412;2023-08-08T14:38:34;3.30;;;1.57;;
3865;SDS011;1948;53.250;10.412;2023-08-08T14:41:07;2.03;;;1.40;;
3865;SDS011;1948;53.250;10.412;2023-08-08T14:43:40;3.63;;;1.60;;
3865;SDS011;1948;53.250;10.412;2023-08-08T14:46:10;4.47;;;1.80;;
3865;SDS011;1948;53.250;10.412;2023-08-08T14:48:40;2.07;;;1.30;;
3865;SDS011;1948;53.250;10.412;2023-08-08T14:51:07;3.23;;;1.70;;
3865;SDS011;1948;53.250;10.412;2023-08-08T14:53:43;3.23;;;1.47;;
3865;SDS011;1948;53.250;10.412;2023-08-08T14:56:14;2.57;;;1.67;;
3865;SDS011;1948;53.250;10.412;2023-08-08T14:58:45;6.13;;;1.40;;
3865;SDS011;1948;53.250;10.412;2023-08-08T15:01:16;7.20;;;2.03;;
3865;SDS011;1948;53.250;10.412;2023-08-08T15:03:43;5.27;;;1.73;;
3865;SDS011;1948;53.250;10.412;2023-08-08T15:06:10;5.97;;;2.87;;
3865;SDS011;1948;53.250;10.412;2023-08-08T15:08:37;3.50;;;1.80;;
3865;SDS011;1948;53.250;10.412;2023-08-08T15:11:05;5.50;;;1.70;;
3865;SDS011;1948;53.250;10.412;2023-08-08T15:13:34;2.70;;;1.60;;
3865;SDS011;1948;53.250;10.412;2023-08-08T15:16:01;5.00;;;1.93;;
3865;SDS011;1948;53.250;10.412;2023-08-08T15:18:29;4.33;;;1.80;;
3865;SDS011;1948;53.250;10.412;2023-08-08T15:20:58;8.13;;;1.87;;
3865;SDS011;1948;53.250;10.412;2023-08-08T15:23:28;3.23;;;1.53;;